sensor_id;sensor_type;location;lat;lon;timestamp;P1;durP1;ratioP1;P2;durP2;ratioP2
1416;SDS011;703;51.162;13.574;2022-09-29T00:00:36;56.80;;;14.50;;
1416;SDS011;703;51.162;13.574;2022-09-29T00:03:02;52.63;;;11.17;;
1416;SDS011;703;51.162;13.574;2022-09-29T00:05:28;55.70;;;13.00;;
1416;SDS011;703;51.162;13.574;2022-09-29T00:07:54;52.50;;;11.63;;
1416;SDS011;703;51.162;13.574;2022-09-29T00:10:20;56.43;;;13.10;;
1416;SDS011;703;51.162;13.574;2022-09-29T00:12:46;57.23;;;14.30;;
1416;SDS011;703;51.162;13.574;2022-09-29T00:15:11;54.37;;;12.53;;
1416;SDS011;703;51.162;13.574;2022-09-29T00:17:38;57.93;;;14.00;;
1416;SDS011;703;51.162;13.574;2022-09-29T00:20:04;53.10;;;12.00;;
1416;SDS011;703;51.162;13.574;2022-09-29T00:22:29;55.37;;;12.47;;
1416;SDS011;703;51.162;13.574;2022-09-29T00:24:55;54.30;;;12.40;;
1416;SDS011;703;51.162;13.574;2022-09-29T00:27:21;58.13;;;12.83;;
1416;SDS011;703;51.162;13.574;2022-09-29T00:29:46;54.77;;;11.70;;
1416;SDS011;703;51.162;13.574;2022-09-29T00:32:12;53.60;;;11.53;;
1416;SDS011;703;51.162;13.574;2022-09-29T00:34:38;56.30;;;12.80;;
1416;SDS011;703;51.162;13.574;2022-09-29T00:37:03;55.20;;;12.97;;
1416;SDS011;703;51.162;13.574;2022-09-29T00:39:29;54.10;;;12.60;;
1416;SDS011;703;51.162;13.574;2022-09-29T00:41:55;51.10;;;11.00;;
1416;SDS011;703;51.162;13.574;2022-09-29T00:46:51;56.80;;;11.23;;
1416;SDS011;703;51.162;13.574;2022-09-29T00:49:41;59.00;;;13.50;;
1416;SDS011;703;51.162;13.574;2022-09-29T00:52:27;52.00;;;11.10;;
1416;SDS011;703;51.162;13.574;2022-09-29T00:55:03;55.70;;;12.67;;
1416;SDS011;703;51.162;13.574;2022-09-29T00:57:37;55.90;;;12.60;;
1416;SDS011;703;51.162;13.574;2022-09-29T01:00:13;54.17;;;11.97;;
1416;SDS011;703;51.162;13.574;2022-09-29T01:02:41;55.53;;;13.13;;
1416;SDS011;703;51.162;13.574;2022-09-29T01:05:12;53.60;;;12.43;;
1416;SDS011;703;51.162;13.574;2022-09-29T01:07:42;52.50;;;12.23;;
1416;SDS011;703;51.162;13.574;2022-09-29T01:10:08;56.07;;;13.30;;
1416;SDS011;703;51.162;13.574;2022-09-29T01:12:35;54.93;;;12.87;;
1416;SDS011;703;51.162;13.574;2022-09-29T01:15:02;53.40;;;11.70;;
1416;SDS011;703;51.162;13.574;2022-09-29T01:17:27;55.10;;;13.23;;
1416;SDS011;703;51.162;13.574;2022-09-29T01:22:39;57.27;;;12.80;;
1416;SDS011;703;51.162;13.574;2022-09-29T01:28:58;55.33;;;13.10;;
1416;SDS011;703;51.162;13.574;2022-09-29T01:34:23;60.40;;;14.13;;
1416;SDS011;703;51.162;13.574;2022-09-29T01:39:38;54.27;;;13.00;;
1416;SDS011;703;51.162;13.574;2022-09-29T01:42:12;53.40;;;11.40;;
1416;SDS011;703;51.162;13.574;2022-09-29T01:45:08;54.50;;;12.90;;
1416;SDS011;703;51.162;13.574;2022-09-29T01:47:59;54.30;;;12.70;;
1416;SDS011;703;51.162;13.574;2022-09-29T01:50:31;56.43;;;13.37;;
1416;SDS011;703;51.162;13.574;2022-09-29T01:53:02;53.40;;;12.30;;
1416;SDS011;703;51.162;13.574;2022-09-29T01:55:32;55.50;;;12.17;;
1416;SDS011;703;51.162;13.574;2022-09-29T01:58:04;65.13;;;14.37;;
1416;SDS011;703;51.162;13.574;2022-09-29T02:00:36;54.87;;;13.37;;
1416;SDS011;703;51.162;13.574;2022-09-29T02:03:13;55.67;;;13.43;;
1416;SDS011;703;51.162;13.574;2022-09-29T02:05:58;58.03;;;14.50;;
1416;SDS011;703;51.162;13.574;2022-09-29T02:08:31;56.20;;;13.23;;
1416;SDS011;703;51.162;13.574;2022-09-29T02:11:07;54.07;;;12.07;;
1416;SDS011;703;51.162;13.574;2022-09-29T02:16:10;58.37;;;12.13;;
1416;SDS011;703;51.162;13.574;2022-09-29T02:18:42;54.30;;;12.80;;
1416;SDS011;703;51.162;13.574;2022-09-29T02:21:18;54.30;;;11.17;;
1416;SDS011;703;51.162;13.574;2022-09-29T02:23:43;55.10;;;13.47;;
1416;SDS011;703;51.162;13.574;2022-09-29T02:26:10;54.67;;;12.60;;
1416;SDS011;703;51.162;13.574;2022-09-29T02:28:36;56.83;;;12.30;;
1416;SDS011;703;51.162;13.574;2022-09-29T02:31:03;56.63;;;11.37;;
1416;SDS011;703;51.162;13.574;2022-09-29T02:33:29;54.20;;;11.37;;
1416;SDS011;703;51.162;13.574;2022-09-29T02:36:07;53.10;;;11.90;;
1416;SDS011;703;51.162;13.574;2022-09-29T02:38:52;55.00;;;11.50;;
1416;SDS011;703;51.162;13.574;2022-09-29T02:41:44;53.53;;;11.60;;
1416;SDS011;703;51.162;13.574;2022-09-29T02:47:10;60.80;;;12.50;;
1416;SDS011;703;51.162;13.574;2022-09-29T02:58:07;54.63;;;11.87;;
1416;SDS011;703;51.162;13.574;2022-09-29T03:00:44;57.03;;;13.47;;
1416;SDS011;703;51.162;13.574;2022-09-29T03:03:11;54.63;;;13.20;;
1416;SDS011;703;51.162;13.574;2022-09-29T03:05:36;60.37;;;14.40;;
1416;SDS011;703;51.162;13.574;2022-09-29T03:08:02;56.10;;;12.73;;
1416;SDS011;703;51.162;13.574;2022-09-29T03:10:29;61.07;;;15.27;;
1416;SDS011;703;51.162;13.574;2022-09-29T03:12:55;57.17;;;14.87;;
1416;SDS011;703;51.162;13.574;2022-09-29T03:15:21;57.67;;;13.50;;
1416;SDS011;703;51.162;13.574;2022-09-29T03:17:46;56.70;;;14.00;;
1416;SDS011;703;51.162;13.574;2022-09-29T03:20:12;54.57;;;12.90;;
1416;SDS011;703;51.162;13.574;2022-09-29T03:22:38;55.10;;;12.60;;
1416;SDS011;703;51.162;13.574;2022-09-29T03:25:04;55.30;;;13.07;;
1416;SDS011;703;51.162;13.574;2022-09-29T03:27:31;55.93;;;13.33;;
1416;SDS011;703;51.162;13.574;2022-09-29T03:29:57;55.50;;;13.40;;
1416;SDS011;703;51.162;13.574;2022-09-29T03:32:23;55.93;;;13.77;;
1416;SDS011;703;51.162;13.574;2022-09-29T03:34:49;59.93;;;13.80;;
1416;SDS011;703;51.162;13.574;2022-09-29T03:37:14;57.00;;;13.57;;
1416;SDS011;703;51.162;13.574;2022-09-29T03:39:40;55.97;;;13.63;;
1416;SDS011;703;51.162;13.574;2022-09-29T03:42:06;54.97;;;13.20;;
1416;SDS011;703;51.162;13.574;2022-09-29T03:44:31;55.67;;;12.90;;
1416;SDS011;703;51.162;13.574;2022-09-29T03:46:57;55.20;;;13.73;;
1416;SDS011;703;51.162;13.574;2022-09-29T03:49:22;54.27;;;11.93;;
1416;SDS011;703;51.162;13.574;2022-09-29T03:51:48;55.97;;;13.40;;
1416;SDS011;703;51.162;13.574;2022-09-29T03:54:13;55.83;;;13.67;;
1416;SDS011;703;51.162;13.574;2022-09-29T03:56:39;54.47;;;12.70;;
1416;SDS011;703;51.162;13.574;2022-09-29T03:59:05;54.80;;;12.83;;
1416;SDS011;703;51.162;13.574;2022-09-29T04:01:34;54.47;;;11.87;;
1416;SDS011;703;51.162;13.574;2022-09-29T04:04:04;58.00;;;14.30;;
1416;SDS011;703;51.162;13.574;2022-09-29T04:06:30;55.07;;;12.70;;
1416;SDS011;703;51.162;13.574;2022-09-29T04:08:56;54.40;;;12.67;;
1416;SDS011;703;51.162;13.574;2022-09-29T04:11:22;56.70;;;14.50;;
1416;SDS011;703;51.162;13.574;2022-09-29T04:16:17;54.50;;;12.23;;
1416;SDS011;703;51.162;13.574;2022-09-29T04:18:42;54.07;;;12.70;;
1416;SDS011;703;51.162;13.574;2022-09-29T04:21:08;55.30;;;13.47;;
1416;SDS011;703;51.162;13.574;2022-09-29T04:23:35;54.50;;;12.60;;
1416;SDS011;703;51.162;13.574;2022-09-29T04:26:02;54.10;;;12.90;;
1416;SDS011;703;51.162;13.574;2022-09-29T04:28:31;55.50;;;12.30;;
1416;SDS011;703;51.162;13.574;2022-09-29T04:30:58;55.10;;;12.47;;
1416;SDS011;703;51.162;13.574;2022-09-29T04:33:24;53.87;;;12.00;;
1416;SDS011;703;51.162;13.574;2022-09-29T04:38:50;57.30;;;14.60;;
1416;SDS011;703;51.162;13.574;2022-09-29T04:41:17;55.00;;;13.33;;
1416;SDS011;703;51.162;13.574;2022-09-29T04:43:43;54.87;;;12.00;;
1416;SDS011;703;51.162;13.574;2022-09-29T04:46:08;56.57;;;14.70;;
1416;SDS011;703;51.162;13.574;2022-09-29T04:48:42;57.57;;;16.00;;
1416;SDS011;703;51.162;13.574;2022-09-29T04:51:08;56.10;;;15.20;;
1416;SDS011;703;51.162;13.574;2022-09-29T04:53:35;59.67;;;15.30;;
1416;SDS011;703;51.162;13.574;2022-09-29T04:56:05;58.23;;;14.97;;
1416;SDS011;703;51.162;13.574;2022-09-29T04:58:43;59.60;;;15.47;;
1416;SDS011;703;51.162;13.574;2022-09-29T05:01:09;57.80;;;16.10;;
1416;SDS011;703;51.162;13.574;2022-09-29T05:03:39;58.10;;;14.80;;
1416;SDS011;703;51.162;13.574;2022-09-29T05:06:05;56.30;;;15.60;;
1416;SDS011;703;51.162;13.574;2022-09-29T05:08:31;65.87;;;17.87;;
1416;SDS011;703;51.162;13.574;2022-09-29T05:10:57;59.27;;;17.70;;
1416;SDS011;703;51.162;13.574;2022-09-29T05:13:22;60.03;;;17.27;;
1416;SDS011;703;51.162;13.574;2022-09-29T05:15:48;59.90;;;18.87;;
1416;SDS011;703;51.162;13.574;2022-09-29T05:18:18;58.80;;;18.30;;
1416;SDS011;703;51.162;13.574;2022-09-29T05:20:44;58.10;;;16.83;;
1416;SDS011;703;51.162;13.574;2022-09-29T05:23:10;59.00;;;18.13;;
1416;SDS011;703;51.162;13.574;2022-09-29T05:25:36;58.57;;;17.10;;
1416;SDS011;703;51.162;13.574;2022-09-29T05:28:04;57.57;;;17.50;;
1416;SDS011;703;51.162;13.574;2022-09-29T05:30:29;58.10;;;16.17;;
1416;SDS011;703;51.162;13.574;2022-09-29T05:32:55;58.93;;;17.27;;
1416;SDS011;703;51.162;13.574;2022-09-29T05:35:21;59.73;;;16.47;;
1416;SDS011;703;51.162;13.574;2022-09-29T05:37:46;64.43;;;17.97;;
1416;SDS011;703;51.162;13.574;2022-09-29T05:40:12;59.83;;;17.47;;
1416;SDS011;703;51.162;13.574;2022-09-29T05:42:38;58.97;;;17.03;;
1416;SDS011;703;51.162;13.574;2022-09-29T05:45:05;57.97;;;15.23;;
1416;SDS011;703;51.162;13.574;2022-09-29T05:47:32;59.90;;;16.33;;
1416;SDS011;703;51.162;13.574;2022-09-29T05:49:57;59.10;;;17.20;;
1416;SDS011;703;51.162;13.574;2022-09-29T05:52:23;59.47;;;18.17;;
1416;SDS011;703;51.162;13.574;2022-09-29T05:54:48;63.10;;;18.63;;
1416;SDS011;703;51.162;13.574;2022-09-29T05:57:15;62.97;;;16.47;;
1416;SDS011;703;51.162;13.574;2022-09-29T05:59:41;57.10;;;15.37;;
1416;SDS011;703;51.162;13.574;2022-09-29T06:02:07;61.97;;;17.33;;
1416;SDS011;703;51.162;13.574;2022-09-29T06:04:33;58.10;;;16.63;;
1416;SDS011;703;51.162;13.574;2022-09-29T06:06:59;56.80;;;15.97;;
1416;SDS011;703;51.162;13.574;2022-09-29T06:09:25;56.33;;;13.20;;
1416;SDS011;703;51.162;13.574;2022-09-29T06:11:50;56.57;;;14.50;;
1416;SDS011;703;51.162;13.574;2022-09-29T06:14:16;54.77;;;13.40;;
1416;SDS011;703;51.162;13.574;2022-09-29T06:16:41;55.23;;;12.97;;
1416;SDS011;703;51.162;13.574;2022-09-29T06:19:07;55.53;;;13.80;;
1416;SDS011;703;51.162;13.574;2022-09-29T06:21:33;54.10;;;13.20;;
1416;SDS011;703;51.162;13.574;2022-09-29T06:23:59;52.40;;;12.23;;
1416;SDS011;703;51.162;13.574;2022-09-29T06:26:26;53.20;;;14.17;;
1416;SDS011;703;51.162;13.574;2022-09-29T06:28:52;55.73;;;14.60;;
1416;SDS011;703;51.162;13.574;2022-09-29T06:31:19;61.00;;;13.20;;
1416;SDS011;703;51.162;13.574;2022-09-29T06:33:47;57.10;;;14.60;;
1416;SDS011;703;51.162;13.574;2022-09-29T06:36:19;54.73;;;14.57;;
1416;SDS011;703;51.162;13.574;2022-09-29T06:39:07;55.70;;;14.60;;
1416;SDS011;703;51.162;13.574;2022-09-29T06:41:34;57.60;;;13.90;;
1416;SDS011;703;51.162;13.574;2022-09-29T06:44:00;54.87;;;13.57;;
1416;SDS011;703;51.162;13.574;2022-09-29T06:46:25;53.00;;;13.57;;
1416;SDS011;703;51.162;13.574;2022-09-29T06:48:52;53.00;;;13.43;;
1416;SDS011;703;51.162;13.574;2022-09-29T06:51:18;52.97;;;13.70;;
1416;SDS011;703;51.162;13.574;2022-09-29T06:53:46;52.57;;;12.53;;
1416;SDS011;703;51.162;13.574;2022-09-29T06:56:12;54.20;;;12.50;;
1416;SDS011;703;51.162;13.574;2022-09-29T06:58:38;55.50;;;12.80;;
1416;SDS011;703;51.162;13.574;2022-09-29T07:01:04;53.30;;;13.37;;
1416;SDS011;703;51.162;13.574;2022-09-29T07:03:30;52.30;;;12.70;;
1416;SDS011;703;51.162;13.574;2022-09-29T07:05:56;52.77;;;13.30;;
1416;SDS011;703;51.162;13.574;2022-09-29T07:08:21;53.63;;;14.47;;
1416;SDS011;703;51.162;13.574;2022-09-29T07:10:47;51.10;;;12.43;;
1416;SDS011;703;51.162;13.574;2022-09-29T07:13:13;50.93;;;11.80;;
1416;SDS011;703;51.162;13.574;2022-09-29T07:15:38;50.03;;;12.67;;
1416;SDS011;703;51.162;13.574;2022-09-29T07:18:04;51.40;;;12.20;;
1416;SDS011;703;51.162;13.574;2022-09-29T07:20:30;53.30;;;12.43;;
1416;SDS011;703;51.162;13.574;2022-09-29T07:22:56;49.67;;;11.13;;
1416;SDS011;703;51.162;13.574;2022-09-29T07:25:22;52.80;;;12.10;;
1416;SDS011;703;51.162;13.574;2022-09-29T07:27:48;50.90;;;11.20;;
1416;SDS011;703;51.162;13.574;2022-09-29T07:30:15;47.67;;;11.47;;
1416;SDS011;703;51.162;13.574;2022-09-29T07:32:41;47.90;;;11.60;;
1416;SDS011;703;51.162;13.574;2022-09-29T07:35:07;49.50;;;12.47;;
1416;SDS011;703;51.162;13.574;2022-09-29T07:37:33;49.43;;;11.70;;
1416;SDS011;703;51.162;13.574;2022-09-29T07:39:58;48.37;;;11.40;;
1416;SDS011;703;51.162;13.574;2022-09-29T07:42:24;48.33;;;11.77;;
1416;SDS011;703;51.162;13.574;2022-09-29T07:44:53;46.87;;;10.87;;
1416;SDS011;703;51.162;13.574;2022-09-29T07:47:19;48.67;;;12.50;;
1416;SDS011;703;51.162;13.574;2022-09-29T07:49:45;49.67;;;12.63;;
1416;SDS011;703;51.162;13.574;2022-09-29T07:52:11;47.70;;;11.30;;
1416;SDS011;703;51.162;13.574;2022-09-29T07:54:37;50.63;;;12.97;;
1416;SDS011;703;51.162;13.574;2022-09-29T07:57:03;49.13;;;13.10;;
1416;SDS011;703;51.162;13.574;2022-09-29T07:59:29;48.10;;;13.20;;
1416;SDS011;703;51.162;13.574;2022-09-29T08:01:54;46.10;;;10.23;;
1416;SDS011;703;51.162;13.574;2022-09-29T08:04:21;46.77;;;11.07;;
1416;SDS011;703;51.162;13.574;2022-09-29T08:06:46;45.17;;;10.07;;
1416;SDS011;703;51.162;13.574;2022-09-29T08:09:12;46.00;;;11.97;;
1416;SDS011;703;51.162;13.574;2022-09-29T08:11:40;47.40;;;12.20;;
1416;SDS011;703;51.162;13.574;2022-09-29T08:14:07;48.13;;;10.17;;
1416;SDS011;703;51.162;13.574;2022-09-29T08:16:34;49.17;;;11.47;;
1416;SDS011;703;51.162;13.574;2022-09-29T08:19:00;45.30;;;10.57;;
1416;SDS011;703;51.162;13.574;2022-09-29T08:21:27;47.47;;;11.17;;
1416;SDS011;703;51.162;13.574;2022-09-29T08:23:53;47.03;;;11.87;;
1416;SDS011;703;51.162;13.574;2022-09-29T08:26:20;45.17;;;11.37;;
1416;SDS011;703;51.162;13.574;2022-09-29T08:28:46;46.20;;;11.17;;
1416;SDS011;703;51.162;13.574;2022-09-29T08:31:17;51.30;;;13.47;;
1416;SDS011;703;51.162;13.574;2022-09-29T08:33:45;43.07;;;10.37;;
1416;SDS011;703;51.162;13.574;2022-09-29T08:36:12;43.00;;;10.63;;
1416;SDS011;703;51.162;13.574;2022-09-29T08:38:50;43.83;;;10.43;;
1416;SDS011;703;51.162;13.574;2022-09-29T08:44:04;44.80;;;10.67;;
1416;SDS011;703;51.162;13.574;2022-09-29T08:46:47;47.73;;;14.90;;
1416;SDS011;703;51.162;13.574;2022-09-29T08:51:56;43.93;;;10.80;;
1416;SDS011;703;51.162;13.574;2022-09-29T08:54:36;42.63;;;9.97;;
1416;SDS011;703;51.162;13.574;2022-09-29T08:57:05;42.83;;;10.37;;
1416;SDS011;703;51.162;13.574;2022-09-29T08:59:39;41.60;;;9.73;;
1416;SDS011;703;51.162;13.574;2022-09-29T09:07:22;42.90;;;10.47;;
1416;SDS011;703;51.162;13.574;2022-09-29T09:21:26;41.00;;;9.10;;
1416;SDS011;703;51.162;13.574;2022-09-29T09:24:04;39.93;;;8.87;;
1416;SDS011;703;51.162;13.574;2022-09-29T09:26:53;40.17;;;6.90;;
1416;SDS011;703;51.162;13.574;2022-09-29T09:29:29;40.60;;;8.57;;
1416;SDS011;703;51.162;13.574;2022-09-29T09:32:02;39.63;;;8.17;;
1416;SDS011;703;51.162;13.574;2022-09-29T09:34:50;41.60;;;7.67;;
1416;SDS011;703;51.162;13.574;2022-09-29T09:37:22;40.00;;;10.30;;
1416;SDS011;703;51.162;13.574;2022-09-29T09:39:58;38.80;;;9.30;;
1416;SDS011;703;51.162;13.574;2022-09-29T09:42:36;40.27;;;8.40;;
1416;SDS011;703;51.162;13.574;2022-09-29T09:45:04;39.60;;;8.30;;
1416;SDS011;703;51.162;13.574;2022-09-29T09:47:58;40.20;;;10.07;;
1416;SDS011;703;51.162;13.574;2022-09-29T09:50:33;41.97;;;8.63;;
1416;SDS011;703;51.162;13.574;2022-09-29T09:53:04;40.00;;;9.73;;
1416;SDS011;703;51.162;13.574;2022-09-29T09:55:34;42.17;;;12.40;;
1416;SDS011;703;51.162;13.574;2022-09-29T10:03:17;38.20;;;7.53;;
1416;SDS011;703;51.162;13.574;2022-09-29T10:05:44;37.80;;;7.03;;
1416;SDS011;703;51.162;13.574;2022-09-29T10:08:12;39.97;;;8.67;;
1416;SDS011;703;51.162;13.574;2022-09-29T10:10:39;38.93;;;7.20;;
1416;SDS011;703;51.162;13.574;2022-09-29T10:13:08;37.93;;;7.10;;
1416;SDS011;703;51.162;13.574;2022-09-29T10:15:49;39.20;;;6.73;;
1416;SDS011;703;51.162;13.574;2022-09-29T10:18:25;36.87;;;6.40;;
1416;SDS011;703;51.162;13.574;2022-09-29T10:21:00;37.83;;;7.47;;
1416;SDS011;703;51.162;13.574;2022-09-29T10:23:26;37.50;;;6.50;;
1416;SDS011;703;51.162;13.574;2022-09-29T10:25:54;37.80;;;6.57;;
1416;SDS011;703;51.162;13.574;2022-09-29T10:28:38;37.90;;;6.43;;
1416;SDS011;703;51.162;13.574;2022-09-29T10:31:14;38.03;;;5.90;;
1416;SDS011;703;51.162;13.574;2022-09-29T10:33:45;40.40;;;7.60;;
1416;SDS011;703;51.162;13.574;2022-09-29T10:36:28;35.60;;;5.90;;
1416;SDS011;703;51.162;13.574;2022-09-29T10:38:57;40.47;;;8.47;;
1416;SDS011;703;51.162;13.574;2022-09-29T10:41:23;37.97;;;7.27;;
1416;SDS011;703;51.162;13.574;2022-09-29T10:43:49;36.87;;;5.93;;
1416;SDS011;703;51.162;13.574;2022-09-29T10:46:46;38.27;;;7.13;;
1416;SDS011;703;51.162;13.574;2022-09-29T10:49:21;39.80;;;10.07;;
1416;SDS011;703;51.162;13.574;2022-09-29T10:51:56;37.83;;;6.60;;
1416;SDS011;703;51.162;13.574;2022-09-29T10:54:22;38.37;;;6.40;;
1416;SDS011;703;51.162;13.574;2022-09-29T10:56:50;38.43;;;6.70;;
1416;SDS011;703;51.162;13.574;2022-09-29T10:59:16;38.13;;;6.50;;
1416;SDS011;703;51.162;13.574;2022-09-29T11:02:04;37.80;;;7.50;;
1416;SDS011;703;51.162;13.574;2022-09-29T11:04:32;37.37;;;7.77;;
1416;SDS011;703;51.162;13.574;2022-09-29T11:07:07;38.50;;;7.07;;
1416;SDS011;703;51.162;13.574;2022-09-29T11:09:39;38.30;;;8.57;;
1416;SDS011;703;51.162;13.574;2022-09-29T11:14:51;37.50;;;7.50;;
1416;SDS011;703;51.162;13.574;2022-09-29T11:17:25;36.20;;;6.83;;
1416;SDS011;703;51.162;13.574;2022-09-29T11:20:04;38.83;;;8.50;;
1416;SDS011;703;51.162;13.574;2022-09-29T11:22:54;37.60;;;9.00;;
1416;SDS011;703;51.162;13.574;2022-09-29T11:29:02;36.17;;;5.23;;
1416;SDS011;703;51.162;13.574;2022-09-29T11:32:12;37.10;;;6.47;;
1416;SDS011;703;51.162;13.574;2022-09-29T11:34:31;37.30;;;5.67;;
1416;SDS011;703;51.162;13.574;2022-09-29T11:37:05;38.37;;;6.20;;
1416;SDS011;703;51.162;13.574;2022-09-29T11:42:26;39.47;;;6.50;;
1416;SDS011;703;51.162;13.574;2022-09-29T11:45:09;37.13;;;6.27;;
1416;SDS011;703;51.162;13.574;2022-09-29T11:47:45;36.23;;;4.97;;
1416;SDS011;703;51.162;13.574;2022-09-29T12:04:12;37.90;;;6.23;;
1416;SDS011;703;51.162;13.574;2022-09-29T12:12:54;38.23;;;6.60;;
1416;SDS011;703;51.162;13.574;2022-09-29T12:18:18;37.97;;;9.00;;
1416;SDS011;703;51.162;13.574;2022-09-29T12:20:51;38.93;;;7.90;;
1416;SDS011;703;51.162;13.574;2022-09-29T12:23:19;37.17;;;7.00;;
1416;SDS011;703;51.162;13.574;2022-09-29T12:26:09;38.63;;;8.70;;
1416;SDS011;703;51.162;13.574;2022-09-29T12:28:47;36.00;;;7.50;;
1416;SDS011;703;51.162;13.574;2022-09-29T12:31:23;35.60;;;5.60;;
1416;SDS011;703;51.162;13.574;2022-09-29T12:33:54;35.73;;;5.50;;
1416;SDS011;703;51.162;13.574;2022-09-29T12:36:29;37.20;;;7.40;;
1416;SDS011;703;51.162;13.574;2022-09-29T12:42:28;35.97;;;7.67;;
1416;SDS011;703;51.162;13.574;2022-09-29T12:48:00;37.73;;;5.77;;
1416;SDS011;703;51.162;13.574;2022-09-29T12:51:08;36.90;;;5.67;;
1416;SDS011;703;51.162;13.574;2022-09-29T12:56:56;37.37;;;6.90;;
1416;SDS011;703;51.162;13.574;2022-09-29T12:59:36;35.50;;;5.37;;
1416;SDS011;703;51.162;13.574;2022-09-29T13:10:12;35.03;;;4.47;;
1416;SDS011;703;51.162;13.574;2022-09-29T13:15:36;43.17;;;15.80;;
1416;SDS011;703;51.162;13.574;2022-09-29T13:18:33;35.57;;;4.23;;
1416;SDS011;703;51.162;13.574;2022-09-29T13:29:14;35.57;;;4.47;;
1416;SDS011;703;51.162;13.574;2022-09-29T13:31:43;41.50;;;10.00;;
1416;SDS011;703;51.162;13.574;2022-09-29T13:36:53;36.10;;;5.33;;
1416;SDS011;703;51.162;13.574;2022-09-29T13:39:40;35.40;;;4.37;;
1416;SDS011;703;51.162;13.574;2022-09-29T13:42:25;35.50;;;4.50;;
1416;SDS011;703;51.162;13.574;2022-09-29T13:47:52;36.20;;;5.20;;
1416;SDS011;703;51.162;13.574;2022-09-29T13:58:23;37.17;;;4.73;;
1416;SDS011;703;51.162;13.574;2022-09-29T14:00:54;35.97;;;4.80;;
1416;SDS011;703;51.162;13.574;2022-09-29T14:03:41;34.53;;;4.33;;
1416;SDS011;703;51.162;13.574;2022-09-29T14:11:29;39.17;;;13.20;;
1416;SDS011;703;51.162;13.574;2022-09-29T14:14:13;39.83;;;15.30;;
1416;SDS011;703;51.162;13.574;2022-09-29T14:16:56;38.20;;;14.77;;
1416;SDS011;703;51.162;13.574;2022-09-29T14:30:44;39.00;;;7.47;;
1416;SDS011;703;51.162;13.574;2022-09-29T14:33:16;36.30;;;5.13;;
1416;SDS011;703;51.162;13.574;2022-09-29T14:38:46;36.73;;;4.10;;
1416;SDS011;703;51.162;13.574;2022-09-29T14:41:21;34.87;;;4.37;;
1416;SDS011;703;51.162;13.574;2022-09-29T14:43:52;38.33;;;7.40;;
1416;SDS011;703;51.162;13.574;2022-09-29T14:49:40;38.93;;;7.40;;
1416;SDS011;703;51.162;13.574;2022-09-29T14:52:46;37.83;;;5.90;;
1416;SDS011;703;51.162;13.574;2022-09-29T14:55:36;34.80;;;4.33;;
1416;SDS011;703;51.162;13.574;2022-09-29T14:58:17;36.47;;;5.20;;
1416;SDS011;703;51.162;13.574;2022-09-29T15:00:56;36.40;;;4.80;;
1416;SDS011;703;51.162;13.574;2022-09-29T15:03:25;35.23;;;4.00;;
1416;SDS011;703;51.162;13.574;2022-09-29T15:06:15;35.00;;;4.93;;
1416;SDS011;703;51.162;13.574;2022-09-29T15:08:44;35.70;;;4.33;;
1416;SDS011;703;51.162;13.574;2022-09-29T15:11:35;35.93;;;4.20;;
1416;SDS011;703;51.162;13.574;2022-09-29T15:19:46;37.07;;;6.17;;
1416;SDS011;703;51.162;13.574;2022-09-29T15:22:32;37.67;;;6.30;;
1416;SDS011;703;51.162;13.574;2022-09-29T15:25:24;36.43;;;5.30;;
1416;SDS011;703;51.162;13.574;2022-09-29T15:28:02;37.33;;;5.50;;
1416;SDS011;703;51.162;13.574;2022-09-29T15:30:33;38.17;;;7.20;;
1416;SDS011;703;51.162;13.574;2022-09-29T15:42:01;39.70;;;8.13;;
1416;SDS011;703;51.162;13.574;2022-09-29T15:44:38;40.40;;;11.00;;
1416;SDS011;703;51.162;13.574;2022-09-29T15:47:20;37.07;;;6.03;;
1416;SDS011;703;51.162;13.574;2022-09-29T15:49:51;38.50;;;5.13;;
1416;SDS011;703;51.162;13.574;2022-09-29T15:52:17;36.07;;;5.30;;
1416;SDS011;703;51.162;13.574;2022-09-29T15:54:47;37.00;;;6.37;;
1416;SDS011;703;51.162;13.574;2022-09-29T15:57:27;36.43;;;5.80;;
1416;SDS011;703;51.162;13.574;2022-09-29T16:02:46;38.00;;;6.93;;
1416;SDS011;703;51.162;13.574;2022-09-29T16:05:31;38.67;;;7.30;;
1416;SDS011;703;51.162;13.574;2022-09-29T16:08:01;37.57;;;7.33;;
1416;SDS011;703;51.162;13.574;2022-09-29T16:10:31;37.50;;;7.47;;
1416;SDS011;703;51.162;13.574;2022-09-29T16:13:02;38.47;;;7.97;;
1416;SDS011;703;51.162;13.574;2022-09-29T16:15:50;36.77;;;7.37;;
1416;SDS011;703;51.162;13.574;2022-09-29T16:26:55;37.10;;;6.90;;
1416;SDS011;703;51.162;13.574;2022-09-29T16:38:51;39.63;;;9.17;;
1416;SDS011;703;51.162;13.574;2022-09-29T16:44:02;40.80;;;8.70;;
1416;SDS011;703;51.162;13.574;2022-09-29T16:46:32;38.17;;;8.90;;
1416;SDS011;703;51.162;13.574;2022-09-29T17:01:02;46.80;;;13.60;;
1416;SDS011;703;51.162;13.574;2022-09-29T17:06:32;45.63;;;15.83;;
1416;SDS011;703;51.162;13.574;2022-09-29T17:11:55;45.23;;;12.60;;
1416;SDS011;703;51.162;13.574;2022-09-29T17:17:30;42.87;;;11.83;;
1416;SDS011;703;51.162;13.574;2022-09-29T17:20:15;44.90;;;14.40;;
1416;SDS011;703;51.162;13.574;2022-09-29T17:22:52;45.97;;;14.40;;
1416;SDS011;703;51.162;13.574;2022-09-29T17:25:18;48.27;;;14.37;;
1416;SDS011;703;51.162;13.574;2022-09-29T17:27:44;44.60;;;13.43;;
1416;SDS011;703;51.162;13.574;2022-09-29T17:30:29;43.70;;;12.93;;
1416;SDS011;703;51.162;13.574;2022-09-29T17:32:55;44.20;;;11.17;;
1416;SDS011;703;51.162;13.574;2022-09-29T17:35:26;46.73;;;16.03;;
1416;SDS011;703;51.162;13.574;2022-09-29T17:38:06;48.33;;;16.60;;
1416;SDS011;703;51.162;13.574;2022-09-29T17:40:39;46.30;;;15.20;;
1416;SDS011;703;51.162;13.574;2022-09-29T17:43:07;48.30;;;15.40;;
1416;SDS011;703;51.162;13.574;2022-09-29T17:45:33;46.70;;;14.90;;
1416;SDS011;703;51.162;13.574;2022-09-29T17:48:05;49.10;;;17.00;;
1416;SDS011;703;51.162;13.574;2022-09-29T17:50:32;51.13;;;16.93;;
1416;SDS011;703;51.162;13.574;2022-09-29T17:53:08;47.73;;;14.83;;
1416;SDS011;703;51.162;13.574;2022-09-29T17:55:35;48.03;;;15.57;;
1416;SDS011;703;51.162;13.574;2022-09-29T18:01:36;49.33;;;12.43;;
1416;SDS011;703;51.162;13.574;2022-09-29T18:04:06;45.50;;;13.37;;
1416;SDS011;703;51.162;13.574;2022-09-29T18:06:32;46.33;;;14.57;;
1416;SDS011;703;51.162;13.574;2022-09-29T18:09:02;46.10;;;12.20;;
1416;SDS011;703;51.162;13.574;2022-09-29T18:17:13;50.80;;;16.83;;
1416;SDS011;703;51.162;13.574;2022-09-29T18:19:38;50.17;;;16.70;;
1416;SDS011;703;51.162;13.574;2022-09-29T18:22:05;52.70;;;15.93;;
1416;SDS011;703;51.162;13.574;2022-09-29T18:24:32;51.10;;;16.17;;
1416;SDS011;703;51.162;13.574;2022-09-29T18:26:58;48.73;;;16.47;;
1416;SDS011;703;51.162;13.574;2022-09-29T18:29:24;51.23;;;16.53;;
1416;SDS011;703;51.162;13.574;2022-09-29T18:31:49;48.13;;;17.20;;
1416;SDS011;703;51.162;13.574;2022-09-29T18:34:17;47.80;;;16.90;;
1416;SDS011;703;51.162;13.574;2022-09-29T18:36:43;49.70;;;16.80;;
1416;SDS011;703;51.162;13.574;2022-09-29T18:39:09;52.80;;;20.90;;
1416;SDS011;703;51.162;13.574;2022-09-29T18:41:36;50.47;;;19.50;;
1416;SDS011;703;51.162;13.574;2022-09-29T18:44:07;53.07;;;19.77;;
1416;SDS011;703;51.162;13.574;2022-09-29T18:46:41;52.70;;;20.63;;
1416;SDS011;703;51.162;13.574;2022-09-29T18:49:12;54.30;;;20.83;;
1416;SDS011;703;51.162;13.574;2022-09-29T18:51:38;57.43;;;21.43;;
1416;SDS011;703;51.162;13.574;2022-09-29T18:54:04;53.30;;;19.87;;
1416;SDS011;703;51.162;13.574;2022-09-29T18:56:31;56.33;;;20.20;;
1416;SDS011;703;51.162;13.574;2022-09-29T18:58:57;52.60;;;19.60;;
1416;SDS011;703;51.162;13.574;2022-09-29T19:01:23;54.00;;;20.47;;